Time;durP1;ratioP1;P1;durP2;ratioP2;P2;SDS_P1;SDS_P2;PMS_P1;PMS_P2;Temp;Humidity;BMP_temperature;BMP_pressure;BME280_temperature;BME280_humidity;BME280_pressure;Samples;Min_cycle;Max_cycle;Signal;HPM_P1;HPM_P2
2021/03/14 00:00:53;;;;;;;5.50;2.90;;;;;;;7.48;63.21;98535.44;5058675;28;20485;-84
2021/03/14 00:03:22;;;;;;;5.90;2.40;;;;;;;7.16;64.04;98525.53;5054584;28;20473;-85
2021/03/14 00:05:50;;;;;;;9.13;4.10;;;;;;;7.06;64.46;98519.50;5040656;28;21029;-86
2021/03/14 00:08:18;;;;;;;11.33;3.20;;;;;;;7.54;63.64;98536.59;5052259;28;20460;-86
2021/03/14 00:10:46;;;;;;;6.07;2.93;;;;;;;7.42;63.23;98544.03;5060464;28;20473;-87
2021/03/14 00:13:13;;;;;;;10.63;3.30;;;;;;;7.52;63.10;98542.06;5061092;28;20518;-84
2021/03/14 00:15:39;;;;;;;10.50;2.77;;;;;;;7.13;64.34;98557.72;5061007;28;20477;-85
2021/03/14 00:18:06;;;;;;;6.93;3.27;;;;;;;7.58;62.86;98550.41;5055874;28;20526;-86
2021/03/14 00:20:32;;;;;;;9.33;3.17;;;;;;;7.28;63.91;98553.47;5060887;28;20499;-86
2021/03/14 00:22:59;;;;;;;8.13;2.33;;;;;;;7.23;64.25;98544.31;5061175;28;20452;-84
2021/03/14 00:25:26;;;;;;;8.47;3.67;;;;;;;7.39;63.71;98557.66;5060844;28;20456;-86
2021/03/14 00:27:52;;;;;;;9.87;3.37;;;;;;;7.16;64.10;98560.06;5060318;28;21152;-83
2021/03/14 00:30:20;;;;;;;7.10;3.33;;;;;;;7.47;63.73;98570.97;5060155;28;20445;-84
2021/03/14 00:32:46;;;;;;;4.73;2.73;;;;;;;7.32;63.72;98583.22;5060921;28;20472;-87
2021/03/14 00:35:15;;;;;;;11.80;2.93;;;;;;;7.44;63.20;98575.78;5059941;28;20449;-82
2021/03/14 00:37:41;;;;;;;7.47;3.07;;;;;;;7.36;63.78;98592.56;5060660;28;20480;-85
2021/03/14 00:40:09;;;;;;;5.10;2.67;;;;;;;7.33;63.54;98585.72;5059984;28;20457;-85
2021/03/14 00:42:36;;;;;;;8.67;3.17;;;;;;;7.29;63.85;98584.38;5057364;28;20461;-83
2021/03/14 00:45:03;;;;;;;7.93;2.67;;;;;;;7.44;63.80;98599.72;5052016;28;20457;-84
2021/03/14 00:47:30;;;;;;;8.00;2.43;;;;;;;7.38;63.31;98587.91;5042986;28;21043;-82
2021/03/14 00:49:56;;;;;;;6.10;3.67;;;;;;;7.44;63.12;98595.22;5043425;28;21161;-83
2021/03/14 00:52:22;;;;;;;8.80;3.17;;;;;;;7.33;63.84;98609.66;5041867;28;21008;-84
2021/03/14 00:54:48;;;;;;;4.30;2.63;;;;;;;7.25;63.82;98606.94;5044798;28;20460;-85
2021/03/14 00:57:15;;;;;;;6.80;2.63;;;;;;;7.36;63.40;98619.16;5044136;28;20485;-78
2021/03/14 00:59:42;;;;;;;13.50;3.17;;;;;;;7.35;63.31;98617.47;5043552;28;20485;-85
2021/03/14 01:02:08;;;;;;;8.67;3.00;;;;;;;6.95;64.44;98626.91;5046736;28;20478;-85
2021/03/14 01:04:34;;;;;;;7.70;2.30;;;;;;;7.12;64.33;98633.16;5061234;28;20421;-85
2021/03/14 01:07:00;;;;;;;6.97;2.40;;;;;;;7.34;63.89;98621.97;5063436;28;20491;-83
2021/03/14 01:09:27;;;;;;;11.33;2.83;;;;;;;7.23;63.88;98643.50;5063418;28;20449;-84
2021/03/14 01:11:53;;;;;;;6.57;2.77;;;;;;;7.43;63.43;98629.94;5062667;28;20473;-84
2021/03/14 01:14:19;;;;;;;11.00;3.03;;;;;;;7.23;63.60;98635.50;5064158;28;20480;-84
2021/03/14 01:16:46;;;;;;;6.27;3.10;;;;;;;7.09;64.26;98636.13;5063255;28;20480;-85
2021/03/14 01:19:12;;;;;;;8.60;3.23;;;;;;;7.10;64.26;98646.59;5063888;28;20454;-86
2021/03/14 01:21:39;;;;;;;10.30;3.93;;;;;;;7.39;63.63;98640.06;5053150;28;20872;-80
2021/03/14 01:24:08;;;;;;;8.83;3.00;;;;;;;7.50;63.31;98657.59;5047802;28;20955;-84
2021/03/14 01:26:34;;;;;;;7.63;3.90;;;;;;;7.10;64.02;98646.59;5063001;28;20484;-86
2021/03/14 01:29:01;;;;;;;7.37;2.73;;;;;;;7.24;63.68;98655.81;5063390;28;20456;-84
2021/03/14 01:31:27;;;;;;;10.53;2.87;;;;;;;7.26;63.65;98651.16;5062493;28;20477;-86
2021/03/14 01:33:54;;;;;;;8.17;3.00;;;;;;;6.99;64.31;98657.47;5058232;28;20442;-83
2021/03/14 01:36:20;;;;;;;7.53;2.50;;;;;;;7.02;64.56;98664.31;5063319;28;20487;-87
2021/03/14 01:38:46;;;;;;;10.77;3.47;;;;;;;7.29;63.68;98661.47;5046963;28;20454;-86
2021/03/14 01:41:13;;;;;;;6.77;2.80;;;;;;;7.25;63.87;98662.75;5056231;28;20473;-85
2021/03/14 01:43:39;;;;;;;6.33;2.50;;;;;;;7.37;63.42;98668.66;5044124;28;20449;-87
2021/03/14 01:46:06;;;;;;;7.33;3.70;;;;;;;7.28;63.72;98673.09;5053270;28;20481;-83
2021/03/14 01:48:34;;;;;;;8.70;3.37;;;;;;;7.23;63.73;98666.59;5062766;28;20467;-85
2021/03/14 01:51:02;;;;;;;7.07;2.80;;;;;;;7.13;64.63;98672.00;5062322;28;20481;-84
2021/03/14 01:53:28;;;;;;;11.13;2.97;;;;;;;6.97;64.73;98686.03;5063897;28;20449;-85
2021/03/14 01:55:55;;;;;;;9.97;3.20;;;;;;;7.06;64.45;98682.44;5062923;28;20468;-87
2021/03/14 01:58:23;;;;;;;7.17;2.83;;;;;;;7.19;64.01;98676.72;5060275;28;20487;-82
2021/03/14 02:00:50;;;;;;;9.10;3.60;;;;;;;7.14;64.05;98692.28;5051085;28;20493;-84
2021/03/14 02:03:16;;;;;;;5.57;2.80;;;;;;;7.04;64.68;98684.41;5049186;28;20452;-84
2021/03/14 02:05:42;;;;;;;8.03;2.83;;;;;;;7.19;63.80;98695.31;5061720;28;20477;-86
2021/03/14 02:08:09;;;;;;;7.57;3.67;;;;;;;7.10;64.49;98702.41;5062888;28;20425;-86
2021/03/14 02:10:36;;;;;;;6.43;2.40;;;;;;;7.18;64.14;98695.47;5053643;28;20898;-86
2021/03/14 02:13:07;;;;;;;10.00;3.10;;;;;;;7.18;64.12;98700.78;5062776;28;20518;-84
2021/03/14 02:15:36;;;;;;;6.17;3.40;;;;;;;7.10;64.50;98714.84;5062786;28;20547;-83
2021/03/14 02:18:04;;;;;;;8.70;2.93;;;;;;;6.93;64.93;98720.06;5062639;28;20475;-83
2021/03/14 02:20:32;;;;;;;9.43;3.60;;;;;;;7.37;63.93;98716.50;5061864;28;20485;-82
2021/03/14 02:23:07;;;;;;;10.87;4.40;;;;;;;7.12;64.52;98723.50;5041968;28;20458;-84
2021/03/14 02:25:42;;;;;;;7.03;3.60;;;;;;;7.46;63.65;98731.50;5043432;28;20460;-83
2021/03/14 02:28:10;;;;;;;13.10;3.23;;;;;;;7.06;65.07;98738.22;5062571;28;20432;-81
2021/03/14 02:30:36;;;;;;;7.50;4.33;;;;;;;7.27;64.35;98734.38;5061667;28;20861;-85
2021/03/14 02:33:03;;;;;;;8.00;3.60;;;;;;;7.02;65.04;98744.84;5051116;28;20460;-84
2021/03/14 02:35:30;;;;;;;5.20;3.23;;;;;;;7.23;64.35;98749.81;5060510;28;20461;-87
2021/03/14 02:37:57;;;;;;;13.87;3.07;;;;;;;6.96;65.09;98758.75;5062414;28;20480;-87
2021/03/14 02:40:23;;;;;;;9.03;3.40;;;;;;;7.36;64.12;98752.06;5061719;28;20873;-88
2021/03/14 02:42:50;;;;;;;8.33;3.70;;;;;;;7.31;64.08;98760.50;5071333;28;21378;-82
2021/03/14 02:45:18;;;;;;;9.03;3.83;;;;;;;7.62;63.22;98759.19;5068579;28;20465;-85
2021/03/14 02:47:44;;;;;;;7.33;3.73;;;;;;;7.41;63.60;98771.03;5052123;28;21027;-83
2021/03/14 02:50:12;;;;;;;12.60;3.83;;;;;;;7.25;64.47;98768.28;5050260;28;20446;-82
2021/03/14 02:52:38;;;;;;;9.77;3.60;;;;;;;7.40;63.80;98777.34;5060696;28;20948;-86
2021/03/14 02:55:06;;;;;;;8.40;3.70;;;;;;;7.20;63.90;98776.69;5060480;28;21128;-82
2021/03/14 02:57:34;;;;;;;8.27;3.60;;;;;;;7.13;63.88;98773.84;5060162;28;20504;-86
2021/03/14 03:00:00;;;;;;;13.77;4.40;;;;;;;7.20;63.87;98782.00;5062299;28;20495;-85
2021/03/14 03:02:28;;;;;;;7.60;3.73;;;;;;;7.17;64.04;98792.97;5062366;28;20487;-86
2021/03/14 03:04:54;;;;;;;9.73;3.63;;;;;;;7.32;63.42;98787.91;5062213;28;20517;-83
2021/03/14 03:07:21;;;;;;;8.83;3.33;;;;;;;6.93;64.54;98797.09;5062428;28;20487;-84
2021/03/14 03:09:50;;;;;;;9.90;3.20;;;;;;;7.32;63.71;98803.88;5060095;28;20449;-86
2021/03/14 03:12:16;;;;;;;12.40;4.30;;;;;;;7.69;62.40;98805.44;5061592;28;20479;-84
2021/03/14 03:14:44;;;;;;;9.50;3.67;;;;;;;7.21;64.33;98801.47;5062021;28;20449;-83
2021/03/14 03:17:10;;;;;;;11.83;3.60;;;;;;;7.18;63.88;98810.56;5061991;28;20623;-87
2021/03/14 03:19:38;;;;;;;8.97;4.20;;;;;;;7.37;63.13;98819.38;5061656;28;20453;-86
2021/03/14 03:22:04;;;;;;;12.03;3.60;;;;;;;7.17;63.94;98814.25;5061033;28;20480;-83
2021/03/14 03:24:30;;;;;;;8.40;4.10;;;;;;;7.15;64.06;98822.38;5062412;28;20468;-87
2021/03/14 03:26:57;;;;;;;16.00;4.67;;;;;;;7.30;63.72;98822.63;5060752;28;20473;-85
2021/03/14 03:29:23;;;;;;;6.43;4.17;;;;;;;7.00;64.53;98831.88;5060270;28;20446;-87
2021/03/14 03:31:49;;;;;;;6.37;3.80;;;;;;;7.04;64.16;98833.22;5057363;28;20503;-86
2021/03/14 03:34:15;;;;;;;9.13;4.50;;;;;;;7.28;63.62;98834.41;5061417;28;20522;-82
2021/03/14 03:36:43;;;;;;;10.67;4.47;;;;;;;7.50;62.99;98844.56;5061162;28;20480;-85
2021/03/14 03:39:11;;;;;;;9.07;4.07;;;;;;;7.27;63.70;98841.53;5060548;28;20492;-83
2021/03/14 03:41:43;;;;;;;8.97;3.80;;;;;;;7.31;63.43;98845.56;5053793;28;20476;-83
2021/03/14 03:44:09;;;;;;;11.83;3.70;;;;;;;6.99;64.41;98851.44;5061561;28;20516;-86
2021/03/14 03:46:36;;;;;;;9.10;3.80;;;;;;;7.28;63.62;98848.53;5061579;28;20484;-87
2021/03/14 03:49:03;;;;;;;11.80;3.37;;;;;;;7.28;63.53;98858.34;5061198;28;20453;-83
2021/03/14 03:51:30;;;;;;;14.27;3.50;;;;;;;6.97;64.99;98854.25;5060899;28;20472;-84
2021/03/14 03:53:59;;;;;;;14.13;3.83;;;;;;;7.12;63.98;98857.22;5061342;28;20978;-84
2021/03/14 03:56:26;;;;;;;9.30;4.70;;;;;;;7.23;63.78;98864.13;5051961;28;20461;-85
2021/03/14 03:58:53;;;;;;;5.70;4.00;;;;;;;7.52;62.80;98873.66;5060697;28;20500;-85
2021/03/14 04:01:19;;;;;;;19.33;4.37;;;;;;;7.27;63.60;98877.94;5060835;28;20468;-86
2021/03/14 04:03:47;;;;;;;8.67;3.03;;;;;;;7.04;64.09;98882.88;5062578;28;20456;-84
2021/03/14 04:06:17;;;;;;;13.13;4.80;;;;;;;7.08;64.22;98879.78;5061416;28;20476;-85
2021/03/14 04:08:45;;;;;;;6.53;3.60;;;;;;;7.10;64.38;98890.22;5062317;28;20460;-85
2021/03/14 04:11:14;;;;;;;14.50;4.20;;;;;;;7.49;63.07;98895.22;5060668;28;20481;-83
2021/03/14 04:13:41;;;;;;;14.57;4.57;;;;;;;7.45;63.21;98899.19;5061958;28;20487;-85
2021/03/14 04:16:08;;;;;;;9.93;2.93;;;;;;;7.15;64.06;98895.94;5053234;28;20479;-84
2021/03/14 04:18:35;;;;;;;6.97;4.30;;;;;;;7.08;64.24;98894.88;5062016;28;20469;-85
2021/03/14 04:21:04;;;;;;;10.30;3.87;;;;;;;7.19;63.81;98915.06;5061933;28;20543;-84
2021/03/14 04:23:31;;;;;;;14.40;4.10;;;;;;;7.32;63.65;98915.53;5065688;28;20464;-82
2021/03/14 04:25:58;;;;;;;10.13;3.77;;;;;;;7.16;64.29;98917.03;5065160;28;20983;-84
2021/03/14 04:28:28;;;;;;;12.40;3.83;;;;;;;7.41;63.75;98921.75;5064945;28;20456;-86
2021/03/14 04:30:54;;;;;;;7.30;3.53;;;;;;;7.28;63.98;98927.47;5064675;28;20908;-83
2021/03/14 04:33:21;;;;;;;11.87;4.20;;;;;;;7.47;63.45;98926.47;5065526;28;20449;-88
2021/03/14 04:35:50;;;;;;;12.50;3.67;;;;;;;7.20;64.01;98930.88;5065055;28;20472;-82
2021/03/14 04:38:16;;;;;;;12.13;4.40;;;;;;;7.42;63.46;98932.25;5058887;28;20488;-85
2021/03/14 04:40:43;;;;;;;8.90;3.70;;;;;;;7.41;63.18;98940.38;5064640;28;21093;-86
2021/03/14 04:43:10;;;;;;;5.93;2.97;;;;;;;7.01;63.61;98945.13;5065060;28;20445;-87
2021/03/14 04:45:38;;;;;;;7.83;3.27;;;;;;;7.41;62.28;98951.81;5065053;28;20539;-87
2021/03/14 04:48:04;;;;;;;6.43;2.70;;;;;;;7.18;62.09;98947.97;5064571;28;20437;-81
2021/03/14 04:50:31;;;;;;;7.10;2.50;;;;;;;7.09;62.74;98958.50;5064785;28;20968;-86
2021/03/14 04:52:58;;;;;;;5.70;2.77;;;;;;;6.79;63.00;98968.47;5063577;28;20471;-88
2021/03/14 04:55:26;;;;;;;7.03;2.70;;;;;;;7.00;62.61;98982.50;5064571;28;20477;-86
2021/03/14 04:57:52;;;;;;;6.80;3.67;;;;;;;6.95;63.14;98996.22;5063803;28;20526;-84
2021/03/14 05:00:20;;;;;;;6.30;2.57;;;;;;;6.93;64.88;98998.19;5063657;28;21018;-84
2021/03/14 05:02:48;;;;;;;7.40;3.33;;;;;;;6.83;65.87;98989.44;5064707;28;20453;-84
2021/03/14 05:05:17;;;;;;;7.23;3.13;;;;;;;6.75;66.59;98996.31;5063768;28;20437;-81
2021/03/14 05:07:46;;;;;;;6.47;3.23;;;;;;;6.93;66.30;98999.03;5064232;28;20433;-83
2021/03/14 05:10:15;;;;;;;6.97;3.20;;;;;;;6.87;66.72;99012.06;5063469;28;20460;-84
2021/03/14 05:12:41;;;;;;;6.23;3.07;;;;;;;6.57;67.32;99024.63;5063957;28;20445;-86
2021/03/14 05:15:10;;;;;;;6.03;3.60;;;;;;;6.35;68.55;99010.75;5064217;28;20465;-82
2021/03/14 05:17:36;;;;;;;10.70;3.80;;;;;;;6.86;67.50;99011.22;5059187;28;20492;-79
2021/03/14 05:20:04;;;;;;;8.90;4.40;;;;;;;6.79;67.48;99020.78;5064320;28;20487;-79
2021/03/14 05:22:30;;;;;;;7.60;3.80;;;;;;;6.62;68.13;99029.50;5043341;28;20474;-79
2021/03/14 05:24:58;;;;;;;8.73;4.00;;;;;;;6.37;67.88;99039.75;5043609;28;20457;-78
2021/03/14 05:27:24;;;;;;;10.27;5.30;;;;;;;6.27;68.12;99028.34;5042606;28;20477;-79
2021/03/14 05:29:50;;;;;;;8.10;4.60;;;;;;;6.14;68.29;99026.81;5043246;28;20456;-77
2021/03/14 05:32:17;;;;;;;7.80;4.37;;;;;;;5.90;68.66;99027.22;5042332;28;20492;-77
2021/03/14 05:34:43;;;;;;;5.93;4.70;;;;;;;5.65;69.39;99039.25;5043813;28;20446;-78
2021/03/14 05:37:10;;;;;;;9.23;4.50;;;;;;;5.93;69.19;99042.88;5042871;28;20485;-79
2021/03/14 05:39:36;;;;;;;15.40;5.00;;;;;;;5.79;69.90;99035.34;5043760;28;20466;-78
2021/03/14 05:42:04;;;;;;;9.33;5.13;;;;;;;6.02;69.29;99054.50;5042369;28;20539;-81
2021/03/14 05:44:31;;;;;;;7.03;4.50;;;;;;;6.40;68.60;99050.09;5044272;28;20429;-80
2021/03/14 05:46:57;;;;;;;11.47;5.40;;;;;;;6.43;68.67;99067.59;5056806;28;20492;-81
2021/03/14 05:49:25;;;;;;;14.50;5.17;;;;;;;6.49;68.81;99061.69;5062805;28;20487;-82
2021/03/14 05:51:52;;;;;;;19.13;5.50;;;;;;;6.28;69.98;99068.00;5062359;28;20936;-82
2021/03/14 05:54:20;;;;;;;15.97;5.17;;;;;;;6.07;70.03;99067.34;5063229;28;20488;-85
2021/03/14 05:56:48;;;;;;;15.40;6.87;;;;;;;6.49;69.15;99086.44;5062071;28;20488;-83
2021/03/14 05:59:16;;;;;;;10.20;6.20;;;;;;;6.42;69.15;99072.03;5061642;28;20519;-84
2021/03/14 06:01:46;;;;;;;12.00;5.73;;;;;;;6.13;69.90;99080.88;5062529;28;20484;-81
2021/03/14 06:04:14;;;;;;;10.90;5.67;;;;;;;6.44;69.67;99079.84;5063192;28;20452;-80
2021/03/14 06:06:40;;;;;;;14.23;6.63;;;;;;;6.83;68.93;99090.38;5062358;28;20482;-82
2021/03/14 06:09:06;;;;;;;11.80;5.53;;;;;;;6.45;69.64;99093.00;5044395;28;20460;-84
2021/03/14 06:11:33;;;;;;;19.63;6.07;;;;;;;6.93;68.36;99104.47;5042178;28;20481;-82
2021/03/14 06:14:00;;;;;;;11.87;5.47;;;;;;;6.41;69.69;99097.75;5043262;28;20926;-82
2021/03/14 06:16:26;;;;;;;12.33;6.23;;;;;;;6.47;69.48;99095.50;5061439;28;20503;-84
2021/03/14 06:18:53;;;;;;;11.87;5.37;;;;;;;6.68;69.24;99096.13;5062463;28;20485;-83
2021/03/14 06:21:21;;;;;;;7.87;4.90;;;;;;;6.95;68.30;99113.13;5050908;28;20474;-81
2021/03/14 06:23:58;;;;;;;14.23;4.83;;;;;;;6.60;68.87;99112.81;5063049;28;20464;-81
2021/03/14 06:26:39;;;;;;;7.07;4.80;;;;;;;6.90;69.13;99118.88;5046171;28;20477;-79
2021/03/14 06:29:24;;;;;;;9.40;4.93;;;;;;;6.85;68.71;99120.31;5062124;28;20441;-83
2021/03/14 06:31:52;;;;;;;12.97;5.10;;;;;;;6.72;69.25;99125.94;5037647;28;21151;-80
2021/03/14 06:34:30;;;;;;;11.90;5.63;;;;;;;6.75;69.90;99137.09;5039856;28;20457;-82
2021/03/14 06:36:58;;;;;;;19.03;6.20;;;;;;;7.09;68.39;99133.91;5032765;28;20964;-81
2021/03/14 06:39:26;;;;;;;14.20;6.70;;;;;;;6.81;69.15;99140.19;5037870;28;20529;-79
2021/03/14 06:41:54;;;;;;;9.80;6.20;;;;;;;6.57;69.50;99141.47;5026963;28;20477;-80
2021/03/14 06:44:25;;;;;;;12.80;6.10;;;;;;;6.84;69.33;99155.81;5034290;28;20469;-83
2021/03/14 06:46:51;;;;;;;10.77;5.40;;;;;;;6.61;69.50;99161.44;5032564;28;20489;-81
2021/03/14 06:49:20;;;;;;;14.93;6.80;;;;;;;7.10;68.81;99171.94;5038978;28;20465;-82
2021/03/14 06:51:47;;;;;;;14.03;6.40;;;;;;;6.75;69.89;99182.28;5041059;28;20519;-83
2021/03/14 06:54:30;;;;;;;12.47;6.37;;;;;;;6.92;69.18;99179.84;5038976;28;20957;-84
2021/03/14 06:57:02;;;;;;;11.93;6.70;;;;;;;7.18;68.63;99193.34;5044381;28;20481;-82
2021/03/14 06:59:29;;;;;;;17.23;7.20;;;;;;;6.98;69.45;99204.03;5037874;28;20486;-82
2021/03/14 07:02:00;;;;;;;13.83;6.30;;;;;;;7.01;69.31;99199.41;5038817;28;20481;-83
2021/03/14 07:04:48;;;;;;;13.20;6.63;;;;;;;6.94;68.83;99201.78;5039245;28;20457;-82
2021/03/14 07:07:16;;;;;;;9.03;6.23;;;;;;;7.20;68.76;99190.53;5039595;28;20509;-80
2021/03/14 07:09:43;;;;;;;14.83;7.97;;;;;;;6.89;69.25;99198.72;5039664;28;20469;-86
2021/03/14 07:12:21;;;;;;;12.47;7.67;;;;;;;7.19;68.87;99210.97;5038357;28;20531;-83
2021/03/14 07:14:47;;;;;;;10.97;7.13;;;;;;;7.69;67.32;99215.09;5038936;28;20492;-86
2021/03/14 07:17:29;;;;;;;12.23;8.30;;;;;;;7.67;66.86;99209.09;5027921;28;20498;-82
2021/03/14 07:19:56;;;;;;;15.60;7.83;;;;;;;7.47;66.60;99217.16;5037622;28;20454;-82
2021/03/14 07:22:22;;;;;;;14.33;8.27;;;;;;;7.85;66.61;99233.09;5038165;28;20507;-80
2021/03/14 07:24:49;;;;;;;17.23;7.90;;;;;;;8.08;65.21;99239.69;5041930;28;20519;-87
2021/03/14 07:27:20;;;;;;;15.33;8.60;;;;;;;7.79;66.33;99257.63;5059016;28;20469;-77
2021/03/14 07:30:02;;;;;;;10.57;8.07;;;;;;;7.68;66.92;99248.84;5061164;28;20484;-87
2021/03/14 07:32:29;;;;;;;15.33;7.70;;;;;;;7.49;66.98;99249.75;4987483;28;20492;-85
2021/03/14 07:34:55;;;;;;;14.50;7.93;;;;;;;7.26;67.98;99256.44;4985007;28;20528;-89
2021/03/14 07:37:21;;;;;;;14.40;7.30;;;;;;;7.37;68.23;99266.88;4998574;28;20487;-84
2021/03/14 07:39:48;;;;;;;13.50;7.80;;;;;;;7.33;68.03;99270.81;4998875;28;20510;-87
2021/03/14 07:42:19;;;;;;;16.27;7.63;;;;;;;7.03;68.48;99277.16;4998596;28;20479;-83
2021/03/14 07:44:46;;;;;;;12.30;7.70;;;;;;;7.17;68.29;99276.75;4999919;28;20448;-87
2021/03/14 07:47:15;;;;;;;18.90;8.87;;;;;;;7.32;68.13;99295.72;4998752;28;20475;-89
2021/03/14 07:49:46;;;;;;;10.20;7.17;;;;;;;6.72;69.59;99299.41;4997667;28;20487;-87
2021/03/14 07:52:18;;;;;;;18.40;8.27;;;;;;;7.20;68.52;99304.84;4985590;28;20472;-85
2021/03/14 07:54:47;;;;;;;11.23;7.20;;;;;;;6.80;69.72;99325.28;4981050;28;20459;-80
2021/03/14 07:57:14;;;;;;;12.00;7.30;;;;;;;7.01;68.70;99326.97;4996242;28;20519;-83
2021/03/14 07:59:42;;;;;;;14.57;7.20;;;;;;;7.74;67.13;99327.25;5002354;28;20480;-82
2021/03/14 08:02:27;;;;;;;14.07;7.33;;;;;;;7.72;67.12;99337.19;5002460;28;21285;-83
2021/03/14 08:04:55;;;;;;;15.70;7.30;;;;;;;7.64;67.53;99329.94;5002678;28;21338;-86
2021/03/14 08:07:42;;;;;;;11.10;6.93;;;;;;;8.57;65.06;99348.59;5002593;28;20483;-84
2021/03/14 08:10:10;;;;;;;11.63;6.30;;;;;;;8.74;63.92;99348.78;5041383;28;20534;-83
2021/03/14 08:12:37;;;;;;;9.70;6.30;;;;;;;8.42;64.96;99350.94;5061670;28;20449;-87
2021/03/14 08:15:21;;;;;;;7.73;6.07;;;;;;;7.89;65.92;99365.72;5065818;28;20444;-87
2021/03/14 08:17:47;;;;;;;6.50;5.20;;;;;;;7.40;67.10;99365.00;5064916;28;20476;-85
2021/03/14 08:20:14;;;;;;;8.30;5.70;;;;;;;7.59;67.48;99368.63;5063557;28;20467;-88
2021/03/14 08:22:47;;;;;;;11.73;6.33;;;;;;;8.25;65.04;99371.19;5064657;28;20522;-87
2021/03/14 08:25:44;;;;;;;12.27;6.47;;;;;;;8.68;63.71;99371.56;5064693;28;20475;-86
2021/03/14 08:28:28;;;;;;;14.53;5.83;;;;;;;8.43;64.66;99384.56;5063330;28;20459;-85
2021/03/14 08:30:56;;;;;;;7.00;4.87;;;;;;;8.25;65.03;99391.66;5063414;28;20476;-88
2021/03/14 08:33:27;;;;;;;10.27;5.63;;;;;;;8.27;65.72;99395.00;5050859;28;21081;-83
2021/03/14 08:35:56;;;;;;;12.60;5.50;;;;;;;8.58;63.84;99398.25;5064757;28;20466;-83
2021/03/14 08:38:44;;;;;;;7.33;4.20;;;;;;;8.46;64.19;99388.78;5065236;28;20510;-81
2021/03/14 08:41:40;;;;;;;8.40;4.67;;;;;;;8.88;62.15;99398.91;5041873;28;20496;-87
2021/03/14 08:44:09;;;;;;;6.33;4.87;;;;;;;9.07;61.95;99405.91;5051420;28;20453;-85
2021/03/14 08:47:07;;;;;;;6.77;4.37;;;;;;;9.58;60.28;99400.84;5062020;28;20476;-82
2021/03/14 08:49:35;;;;;;;7.77;5.40;;;;;;;9.57;59.84;99397.34;5062046;28;20452;-86
2021/03/14 08:52:03;;;;;;;9.23;5.33;;;;;;;9.22;61.14;99409.75;5062062;28;20496;-84
2021/03/14 08:54:34;;;;;;;7.63;5.87;;;;;;;10.13;59.33;99410.41;5062379;28;20448;-83
2021/03/14 08:57:02;;;;;;;10.20;5.90;;;;;;;9.35;61.04;99413.84;5061281;28;20488;-89
2021/03/14 08:59:28;;;;;;;9.70;5.80;;;;;;;9.06;62.39;99412.22;5061387;28;20477;-89
2021/03/14 09:01:57;;;;;;;8.53;6.20;;;;;;;9.86;60.09;99406.06;5060990;28;20476;-90
2021/03/14 09:04:27;;;;;;;11.23;6.70;;;;;;;9.58;59.56;99422.19;5061981;28;20475;-83
2021/03/14 09:07:01;;;;;;;11.17;5.80;;;;;;;9.62;60.76;99426.25;5053952;28;20491;-86
2021/03/14 09:09:27;;;;;;;9.37;6.43;;;;;;;9.76;60.18;99419.53;5059888;28;20800;-84
2021/03/14 09:11:55;;;;;;;12.73;6.20;;;;;;;10.24;60.65;99428.84;5057108;28;20485;-84
2021/03/14 09:14:29;;;;;;;10.80;6.87;;;;;;;9.96;59.77;99425.47;5041940;28;20505;-86
2021/03/14 09:16:58;;;;;;;11.67;6.50;;;;;;;9.85;59.50;99431.94;5058184;28;20503;-90
2021/03/14 09:19:30;;;;;;;10.37;6.53;;;;;;;9.26;61.50;99441.44;5046989;28;20458;-84
2021/03/14 09:21:58;;;;;;;10.10;7.23;;;;;;;8.62;63.73;99436.91;5061008;28;20475;-87
2021/03/14 09:24:29;;;;;;;10.70;8.30;;;;;;;8.95;62.79;99436.47;5060636;28;20433;-84
2021/03/14 09:26:57;;;;;;;13.33;8.73;;;;;;;8.02;65.55;99431.94;5060288;28;20476;-84
2021/03/14 09:29:48;;;;;;;14.83;9.87;;;;;;;7.94;66.03;99438.97;5060928;28;20437;-85
2021/03/14 09:32:18;;;;;;;16.63;9.10;;;;;;;8.55;64.90;99445.66;5039253;28;20500;-84
2021/03/14 09:34:45;;;;;;;12.47;9.07;;;;;;;8.21;65.43;99444.38;5057696;28;20441;-89
2021/03/14 09:37:11;;;;;;;13.93;10.63;;;;;;;8.23;65.22;99452.22;5060520;28;20477;-83
2021/03/14 09:39:38;;;;;;;14.23;9.17;;;;;;;8.40;64.33;99453.25;5058874;28;20457;-83
2021/03/14 09:42:05;;;;;;;14.47;10.53;;;;;;;8.49;64.32;99460.41;5052889;28;20480;-82
2021/03/14 09:44:34;;;;;;;14.67;9.20;;;;;;;8.90;63.12;99465.38;5059528;28;20437;-90
2021/03/14 09:47:01;;;;;;;13.97;9.77;;;;;;;8.66;62.98;99470.28;5049333;28;20493;-85
2021/03/14 09:49:27;;;;;;;14.10;9.20;;;;;;;8.48;63.65;99480.88;5055114;28;20450;-85
2021/03/14 09:51:56;;;;;;;14.67;10.03;;;;;;;8.90;63.61;99481.38;5052677;28;20685;-82
2021/03/14 09:54:23;;;;;;;12.10;9.00;;;;;;;8.75;64.01;99484.56;5054266;28;20477;-85
2021/03/14 09:56:51;;;;;;;10.10;9.00;;;;;;;8.09;64.97;99478.31;5050762;28;20477;-84
2021/03/14 09:59:22;;;;;;;13.80;10.70;;;;;;;8.33;64.15;99479.63;5051340;28;20520;-82
2021/03/14 10:01:48;;;;;;;13.50;10.07;;;;;;;8.34;65.42;99481.31;5046358;28;20482;-86
2021/03/14 10:04:15;;;;;;;12.80;9.30;;;;;;;8.22;63.42;99487.78;5061301;28;20452;-85
2021/03/14 10:06:43;;;;;;;17.47;9.70;;;;;;;8.00;65.72;99479.19;5050265;28;20511;-89
2021/03/14 10:09:21;;;;;;;13.33;10.50;;;;;;;8.71;63.44;99492.97;5054513;28;20452;-87
2021/03/14 10:11:48;;;;;;;15.63;9.60;;;;;;;8.51;63.33;99492.25;5061749;28;20480;-87
2021/03/14 10:14:16;;;;;;;9.77;8.77;;;;;;;8.42;62.85;99497.44;5062575;28;20461;-81
2021/03/14 10:16:42;;;;;;;12.10;8.30;;;;;;;8.52;63.10;99500.06;5061782;28;20484;-84
2021/03/14 10:19:09;;;;;;;12.23;8.87;;;;;;;8.61;63.63;99507.19;5060566;28;20488;-82
2021/03/14 10:21:35;;;;;;;14.20;9.77;;;;;;;8.79;63.11;99504.59;5062039;28;20465;-83
2021/03/14 10:24:23;;;;;;;11.50;8.87;;;;;;;9.33;61.79;99520.69;5061044;28;20441;-83
2021/03/14 10:26:54;;;;;;;10.33;8.57;;;;;;;8.57;62.88;99515.63;5059609;28;20485;-85
2021/03/14 10:29:21;;;;;;;10.83;7.87;;;;;;;9.09;61.74;99531.94;5057440;28;20532;-83
2021/03/14 10:31:48;;;;;;;11.17;8.33;;;;;;;8.69;62.25;99517.09;5053928;28;20859;-85
2021/03/14 10:34:19;;;;;;;9.70;8.43;;;;;;;8.58;62.61;99530.63;5059317;28;20456;-85
2021/03/14 10:36:45;;;;;;;10.83;8.00;;;;;;;8.04;64.33;99528.47;5061059;28;21017;-87
2021/03/14 10:39:12;;;;;;;10.73;8.50;;;;;;;8.06;63.75;99528.34;5061440;28;20484;-86
2021/03/14 10:41:40;;;;;;;9.70;8.23;;;;;;;8.39;63.95;99528.84;5056324;28;20472;-86
2021/03/14 10:44:07;;;;;;;9.50;8.50;;;;;;;8.70;63.31;99533.94;5049891;28;20483;-84
2021/03/14 10:46:35;;;;;;;11.07;9.30;;;;;;;9.16;62.25;99540.19;5052139;28;20514;-87
2021/03/14 10:49:04;;;;;;;9.13;7.70;;;;;;;10.18;59.54;99536.31;5056296;28;20466;-81
2021/03/14 10:51:34;;;;;;;9.63;7.00;;;;;;;11.37;55.41;99535.63;5047493;28;20484;-84
2021/03/14 10:54:07;;;;;;;9.27;6.47;;;;;;;10.85;54.92;99541.06;5042765;28;20446;-91
2021/03/14 10:56:35;;;;;;;7.13;5.60;;;;;;;9.64;58.70;99557.72;5060400;28;20495;-85
2021/03/14 10:59:03;;;;;;;8.10;5.90;;;;;;;8.85;61.22;99551.13;5053197;28;20999;-86
2021/03/14 11:01:36;;;;;;;7.17;6.27;;;;;;;9.35;60.59;99561.41;5059882;28;20492;-82
2021/03/14 11:04:04;;;;;;;7.07;6.37;;;;;;;8.81;61.67;99542.59;5060564;28;20482;-87
2021/03/14 11:06:31;;;;;;;9.07;7.17;;;;;;;8.45;62.77;99547.78;5048458;28;20481;-83
2021/03/14 11:09:01;;;;;;;9.93;7.00;;;;;;;8.16;63.65;99560.25;5050101;28;20442;-88
2021/03/14 11:11:38;;;;;;;7.60;6.90;;;;;;;9.11;61.62;99564.63;5048311;28;20481;-83
2021/03/14 11:14:36;;;;;;;10.00;7.43;;;;;;;8.60;61.53;99563.28;5041300;28;20441;-89
2021/03/14 11:17:08;;;;;;;9.53;7.77;;;;;;;9.27;60.51;99569.31;5046501;28;20484;-89
2021/03/14 11:19:35;;;;;;;8.13;7.03;;;;;;;9.23;60.09;99571.47;5061164;28;20447;-88
2021/03/14 11:22:01;;;;;;;9.07;6.93;;;;;;;9.27;59.88;99572.00;5055973;28;20486;-83
2021/03/14 11:24:28;;;;;;;8.13;7.33;;;;;;;8.98;60.79;99559.63;5051556;28;20484;-86
2021/03/14 11:26:55;;;;;;;6.70;6.00;;;;;;;8.57;61.04;99571.56;5059829;28;20542;-83
2021/03/14 11:29:21;;;;;;;7.00;6.30;;;;;;;8.49;61.49;99564.31;5043960;28;20445;-87
2021/03/14 11:31:50;;;;;;;10.83;7.80;;;;;;;8.43;62.39;99576.34;5040201;28;20480;-85
2021/03/14 11:34:16;;;;;;;8.83;7.93;;;;;;;8.92;61.41;99578.88;5055280;28;20437;-88
2021/03/14 11:36:43;;;;;;;9.70;7.13;;;;;;;9.21;60.36;99589.41;5059099;28;20487;-87
2021/03/14 11:39:09;;;;;;;14.73;7.97;;;;;;;8.83;60.95;99588.59;5060678;28;20488;-82
2021/03/14 11:41:51;;;;;;;8.67;7.40;;;;;;;9.10;61.16;99586.13;5058884;28;20480;-85
2021/03/14 11:44:17;;;;;;;8.07;7.33;;;;;;;8.83;61.67;99593.09;5056659;28;20590;-87